Time;durP1;ratioP1;P1;durP2;ratioP2;P2;SDS_P1;SDS_P2;PMS_P1;PMS_P2;Temp;Humidity;BMP_temperature;BMP_pressure;BME280_temperature;BME280_humidity;BME280_pressure;Samples;Min_cycle;Max_cycle;Signal;HPM_P1;HPM_P2
2021/10/28 00:14:19;;;;;;;31.50;10.55;;;;;;;6.42;74.10;99391.78;4981411;28;20373;-83
2021/10/28 00:16:48;;;;;;;31.98;11.18;;;;;;;6.45;74.44;99375.81;4964900;28;20038;-82
2021/10/28 00:19:15;;;;;;;24.75;11.23;;;;;;;6.43;74.71;99373.28;5002083;28;20042;-81
2021/10/28 00:21:41;;;;;;;28.98;11.40;;;;;;;6.39;74.57;99365.69;4984156;28;20060;-81
2021/10/28 00:24:10;;;;;;;27.33;11.82;;;;;;;6.37;74.17;99363.19;4981755;28;20092;-79
2021/10/28 00:26:41;;;;;;;30.20;12.10;;;;;;;6.30;74.83;99361.88;4982712;28;20101;-81
2021/10/28 00:29:15;;;;;;;26.85;11.30;;;;;;;6.25;74.83;99354.28;4982026;28;20093;-76
2021/10/28 00:31:42;;;;;;;27.17;11.63;;;;;;;6.23;74.77;99356.19;4997863;28;20096;-78
2021/10/28 00:34:09;;;;;;;30.65;11.15;;;;;;;6.18;75.20;99358.28;4980372;28;20065;-77
2021/10/28 00:36:36;;;;;;;30.13;11.70;;;;;;;6.09;75.77;99348.34;4995822;28;20042;-79
2021/10/28 00:39:08;;;;;;;29.75;12.65;;;;;;;6.05;75.68;99339.81;4933690;28;20094;-80
2021/10/28 00:41:34;;;;;;;28.75;11.48;;;;;;;6.09;75.40;99337.84;4959035;28;20448;-78
2021/10/28 00:44:01;;;;;;;32.58;12.52;;;;;;;6.06;75.99;99338.88;4972540;28;20364;-77
2021/10/28 00:46:29;;;;;;;35.22;12.77;;;;;;;6.07;76.06;99326.59;4995818;28;20147;-79
2021/10/28 00:48:55;;;;;;;38.40;13.35;;;;;;;6.02;76.16;99328.66;4996213;28;20052;-79
2021/10/28 00:51:23;;;;;;;29.08;12.82;;;;;;;6.00;76.29;99323.53;4978050;28;20042;-78
2021/10/28 00:53:50;;;;;;;30.60;12.30;;;;;;;6.01;76.13;99313.84;4987516;28;20046;-78
2021/10/28 00:56:17;;;;;;;33.03;13.30;;;;;;;5.95;76.06;99315.91;4958336;28;20052;-77
2021/10/28 00:58:43;;;;;;;30.70;13.15;;;;;;;5.89;76.56;99310.22;4986474;28;20042;-77
2021/10/28 01:01:10;;;;;;;30.20;12.82;;;;;;;5.88;76.91;99296.25;4976271;28;20096;-78
2021/10/28 01:03:38;;;;;;;31.63;12.95;;;;;;;5.86;77.21;99303.38;4975814;28;20042;-79
2021/10/28 01:06:06;;;;;;;30.55;12.57;;;;;;;5.85;76.52;99285.94;4974488;28;20044;-76
2021/10/28 01:08:32;;;;;;;28.45;12.80;;;;;;;5.84;76.98;99279.00;4974253;28;20452;-75
2021/10/28 01:10:58;;;;;;;36.97;13.60;;;;;;;5.77;77.19;99291.69;4972330;28;20858;-80
2021/10/28 01:13:24;;;;;;;30.95;13.48;;;;;;;5.74;76.90;99285.78;4985144;28;20226;-77
2021/10/28 01:15:53;;;;;;;28.50;12.93;;;;;;;5.81;77.53;99272.19;4974469;28;20527;-77
2021/10/28 01:18:19;;;;;;;29.20;13.00;;;;;;;5.85;77.27;99270.19;4977044;28;20051;-80
2021/10/28 01:20:47;;;;;;;29.33;12.57;;;;;;;5.89;76.89;99269.06;4954360;28;20086;-78
2021/10/28 01:23:15;;;;;;;33.85;12.50;;;;;;;5.92;76.84;99271.50;4974624;28;20495;-80
2021/10/28 01:25:51;;;;;;;38.03;14.65;;;;;;;5.96;76.37;99267.72;4974766;28;20047;-76
2021/10/28 01:28:17;;;;;;;30.50;13.45;;;;;;;5.98;76.38;99262.38;4941179;28;20193;-78
2021/10/28 01:30:56;;;;;;;35.20;13.13;;;;;;;5.95;76.77;99255.53;4958452;28;20549;-78
2021/10/28 01:33:23;;;;;;;36.80;13.43;;;;;;;5.96;76.26;99249.34;4967412;28;20047;-78
2021/10/28 01:35:49;;;;;;;32.35;12.07;;;;;;;5.97;76.80;99243.16;4974100;28;20092;-78
2021/10/28 01:38:17;;;;;;;27.02;12.50;;;;;;;6.03;76.77;99243.72;4941129;28;20046;-78
2021/10/28 01:40:53;;;;;;;31.38;13.63;;;;;;;6.01;75.99;99229.84;4957183;28;20050;-78
2021/10/28 01:43:19;;;;;;;34.47;12.82;;;;;;;5.94;76.79;99227.63;4974067;28;20050;-78
2021/10/28 01:45:45;;;;;;;32.90;12.93;;;;;;;5.87;76.99;99228.97;4973703;28;20042;-77
2021/10/28 01:48:11;;;;;;;31.67;12.60;;;;;;;5.93;76.85;99231.19;4974078;28;20137;-78
2021/10/28 01:50:37;;;;;;;39.45;14.68;;;;;;;5.92;77.42;99215.53;4974858;28;20038;-78
2021/10/28 01:53:02;;;;;;;30.30;12.30;;;;;;;5.91;77.08;99222.56;4986148;28;20510;-77
2021/10/28 01:55:28;;;;;;;33.67;13.73;;;;;;;5.95;76.89;99221.41;4993552;28;20121;-77
2021/10/28 01:57:54;;;;;;;32.70;13.48;;;;;;;6.01;76.79;99214.09;4988672;28;20566;-79
2021/10/28 02:00:22;;;;;;;38.97;13.23;;;;;;;6.04;76.81;99201.63;4945889;28;20043;-79
2021/10/28 02:02:50;;;;;;;34.17;13.05;;;;;;;6.03;77.00;99191.22;4936146;29;20046;-78
2021/10/28 02:05:20;;;;;;;34.38;13.55;;;;;;;6.09;77.17;99201.34;4937580;29;20054;-77
2021/10/28 02:07:46;;;;;;;36.28;12.98;;;;;;;6.06;76.66;99193.66;4951579;28;20034;-77
2021/10/28 02:10:12;;;;;;;35.80;12.85;;;;;;;6.09;76.68;99193.44;4993102;28;20042;-79
2021/10/28 02:12:39;;;;;;;32.75;12.60;;;;;;;6.05;76.81;99190.19;4978850;28;20047;-80
2021/10/28 02:15:06;;;;;;;34.78;14.07;;;;;;;6.06;76.31;99189.25;4940109;28;20038;-80
2021/10/28 02:17:36;;;;;;;44.90;18.90;;;;;;;6.06;77.08;99180.53;4956893;28;20532;-79
2021/10/28 02:20:09;;;;;;;35.22;14.57;;;;;;;6.09;76.35;99177.69;4958771;28;20043;-81
2021/10/28 02:22:35;;;;;;;41.88;14.32;;;;;;;6.02;76.41;99166.78;4941106;28;20130;-80
2021/10/28 02:25:02;;;;;;;36.47;15.65;;;;;;;6.03;76.76;99164.97;4970365;28;20052;-79
2021/10/28 02:27:28;;;;;;;32.58;13.85;;;;;;;6.07;76.55;99155.94;4991164;28;20435;-80
2021/10/28 02:29:54;;;;;;;35.38;13.75;;;;;;;6.05;76.95;99157.84;4992371;28;20055;-78
2021/10/28 02:32:20;;;;;;;35.08;14.52;;;;;;;6.03;76.72;99154.47;4956408;28;20062;-79
2021/10/28 02:34:46;;;;;;;32.75;13.48;;;;;;;6.00;77.10;99152.91;4956696;28;20035;-80
2021/10/28 02:37:12;;;;;;;35.97;14.75;;;;;;;6.01;76.61;99151.09;4976321;28;20049;-81
2021/10/28 02:39:38;;;;;;;34.03;13.65;;;;;;;6.01;76.54;99151.09;4963698;28;20471;-82
2021/10/28 02:42:05;;;;;;;34.83;13.68;;;;;;;6.03;77.18;99138.72;4940426;28;20042;-83
2021/10/28 02:44:31;;;;;;;58.05;19.42;;;;;;;5.98;77.04;99134.63;4964080;28;20497;-78
2021/10/28 02:46:58;;;;;;;35.88;14.68;;;;;;;6.07;77.28;99129.69;4993237;28;20038;-77
2021/10/28 02:49:25;;;;;;;35.95;14.10;;;;;;;6.02;77.31;99131.78;4975932;28;20038;-79
2021/10/28 02:51:51;;;;;;;34.47;14.77;;;;;;;5.99;76.96;99128.44;4992070;28;20049;-81
2021/10/28 02:54:22;;;;;;;38.70;15.38;;;;;;;6.01;77.19;99114.34;4975577;28;20521;-79
2021/10/28 02:56:52;;;;;;;40.15;14.38;;;;;;;5.88;77.59;99120.44;4959723;28;20406;-82
2021/10/28 02:59:18;;;;;;;34.45;15.15;;;;;;;5.92;77.04;99100.03;4957570;28;20556;-81
2021/10/28 03:01:48;;;;;;;39.10;14.55;;;;;;;5.96;77.59;99102.38;4944623;28;20909;-79
2021/10/28 03:04:17;;;;;;;31.52;13.95;;;;;;;5.93;77.71;99096.47;4932048;29;20047;-82
2021/10/28 03:06:44;;;;;;;32.95;14.48;;;;;;;5.92;77.98;99084.28;4960442;28;20518;-82
2021/10/28 03:09:14;;;;;;;36.15;14.38;;;;;;;5.90;77.80;99079.16;4965496;28;20042;-81
2021/10/28 03:11:42;;;;;;;34.13;14.15;;;;;;;5.93;77.72;99071.09;4973719;28;20495;-81
2021/10/28 03:14:11;;;;;;;36.33;14.27;;;;;;;5.90;77.97;99062.56;4960944;28;20050;-81
2021/10/28 03:27:53;;;;;;;36.58;14.25;;;;;;;5.83;77.96;99064.75;4917450;29;20067;-81
2021/10/28 03:30:19;;;;;;;34.97;16.33;;;;;;;5.80;78.41;99075.47;4919136;29;20075;-81
2021/10/28 03:32:45;;;;;;;33.42;13.85;;;;;;;5.76;78.55;99064.34;4930809;29;20047;-81
2021/10/28 03:35:14;;;;;;;36.08;15.75;;;;;;;5.76;78.67;99068.75;4901210;29;20151;-83
2021/10/28 03:37:55;;;;;;;37.35;16.33;;;;;;;5.79;78.40;99058.03;4902004;29;20409;-83
2021/10/28 04:19:58;;;;;;;36.55;14.90;;;;;;;5.92;81.52;99035.28;4956146;28;20039;-80
2021/10/28 04:30:37;;;;;;;27.50;11.85;;;;;;;5.96;81.97;99034.13;4921348;29;20110;-85
2021/10/28 04:33:03;;;;;;;35.85;14.85;;;;;;;5.99;82.05;99033.09;4955198;29;20527;-83
2021/10/28 04:35:29;;;;;;;35.60;14.50;;;;;;;6.03;82.17;99033.72;4924237;29;20043;-82
2021/10/28 04:37:55;;;;;;;32.58;13.38;;;;;;;6.04;81.48;99030.16;4942133;29;20047;-82
2021/10/28 04:40:23;;;;;;;;;;;;;;;5.98;81.74;99032.28;4924478;29;20059;-80
2021/10/28 04:42:49;;;;;;;30.40;13.35;;;;;;;5.97;81.93;99022.69;4925909;29;19986;-84
2021/10/28 04:45:15;;;;;;;36.80;14.20;;;;;;;6.04;81.99;99030.16;4942194;28;20135;-80
2021/10/28 04:47:40;;;;;;;33.25;13.45;;;;;;;6.08;82.33;99018.50;4944671;28;20038;-79
2021/10/28 04:50:07;;;;;;;35.78;12.73;;;;;;;6.05;82.89;99019.56;4994662;28;20033;-79
2021/10/28 04:52:33;;;;;;;40.35;14.45;;;;;;;6.09;83.04;99020.19;4972428;28;20081;-79
2021/10/28 04:54:59;;;;;;;25.88;12.05;;;;;;;6.09;82.91;99018.41;4976795;28;20046;-81
2021/10/28 04:57:25;;;;;;;28.15;12.95;;;;;;;6.07;82.98;99008.94;4993891;28;20038;-82
2021/10/28 04:59:51;;;;;;;30.23;13.00;;;;;;;6.13;83.09;99011.13;4944777;28;20050;-80
2021/10/28 05:02:17;;;;;;;32.00;13.60;;;;;;;6.15;82.99;99004.00;4992308;28;20039;-83
2021/10/28 05:04:43;;;;;;;29.50;11.95;;;;;;;6.18;82.96;99016.94;4943650;28;20114;-84
2021/10/28 05:07:09;;;;;;;30.38;12.43;;;;;;;6.20;82.96;99009.78;4931363;28;20562;-81
2021/10/28 05:09:41;;;;;;;26.77;11.90;;;;;;;6.19;82.91;99005.47;4978437;28;20042;-85
2021/10/28 05:12:08;;;;;;;32.55;12.48;;;;;;;6.25;82.87;98996.34;4963874;28;20046;-83
2021/10/28 05:14:34;;;;;;;27.38;11.02;;;;;;;6.28;82.74;99007.47;4970193;28;20412;-85
2021/10/28 05:17:06;;;;;;;26.52;11.05;;;;;;;6.25;82.36;99007.66;4945778;28;20062;-86
2021/10/28 05:19:44;;;;;;;26.10;11.50;;;;;;;6.32;82.49;99008.91;4909778;29;20051;-87
2021/10/28 05:22:10;;;;;;;;;;;;;;;6.38;82.58;99007.66;4918013;29;20079;-84
2021/10/28 05:24:37;;;;;;;40.17;16.30;;;;;;;6.45;82.16;99014.13;4904277;29;20347;-85
2021/10/28 05:27:04;;;;;;;28.58;11.70;;;;;;;6.45;81.81;99018.56;4903218;29;20525;-81
2021/10/28 05:29:29;;;;;;;27.15;11.10;;;;;;;6.48;82.04;99015.72;4886957;29;20070;-84
2021/10/28 05:31:56;;;;;;;27.52;11.15;;;;;;;6.50;81.95;99015.63;4888608;29;20541;-86
2021/10/28 05:34:22;;;;;;;27.30;11.48;;;;;;;6.49;82.26;99022.63;4937307;29;20053;-84
2021/10/28 05:36:50;;;;;;;28.25;10.32;;;;;;;6.48;82.14;99015.72;4908123;29;20043;-85
2021/10/28 05:39:17;;;;;;;24.00;11.07;;;;;;;6.53;82.16;99016.25;4937920;29;20054;-86
2021/10/28 05:41:43;;;;;;;23.65;10.30;;;;;;;6.55;83.02;99024.84;4920104;29;20052;-87
2021/10/28 05:44:10;;;;;;;28.40;10.52;;;;;;;6.63;82.73;99022.50;4889688;29;20430;-83
2021/10/28 05:46:36;;;;;;;25.75;10.52;;;;;;;6.60;82.89;99016.63;4916402;29;20048;-86
2021/10/28 05:49:02;;;;;;;29.83;12.73;;;;;;;6.60;83.53;99006.97;4920714;29;20649;-89
2021/10/28 05:51:29;;;;;;;29.92;11.23;;;;;;;6.61;82.93;99011.25;4952203;28;20227;-87
2021/10/28 05:53:55;;;;;;;26.85;11.63;;;;;;;6.63;83.69;99012.00;4945651;28;20038;-83
2021/10/28 05:56:21;;;;;;;24.40;11.88;;;;;;;6.68;83.28;99002.94;4957082;28;20046;-85
2021/10/28 05:58:48;;;;;;;20.67;9.50;;;;;;;6.69;83.32;99007.25;4960761;28;20518;-83
2021/10/28 06:01:14;;;;;;;24.00;9.95;;;;;;;6.80;82.50;99007.31;4922719;28;20042;-82
2021/10/28 06:03:40;;;;;;;21.48;9.00;;;;;;;6.85;83.03;99007.81;4964711;28;20042;-80
2021/10/28 06:06:07;;;;;;;23.90;8.82;;;;;;;6.82;82.81;99009.81;4961958;28;20042;-82
2021/10/28 06:08:34;;;;;;;24.53;9.40;;;;;;;6.87;82.82;99003.28;4961490;28;20117;-82
2021/10/28 06:11:21;;;;;;;16.45;8.57;;;;;;;6.80;83.42;99004.69;4945099;28;20292;-86
2021/10/28 06:13:49;;;;;;;22.65;9.88;;;;;;;6.94;82.21;98998.41;4998918;28;20038;-82
2021/10/28 06:16:15;;;;;;;20.38;9.30;;;;;;;6.96;82.54;98994.72;4954228;28;20174;-85
2021/10/28 06:19:06;;;;;;;14.85;7.65;;;;;;;6.99;82.65;98995.47;4968781;28;20038;-84
2021/10/28 06:21:33;;;;;;;20.77;8.00;;;;;;;7.02;82.28;99005.78;4943008;28;20101;-85
2021/10/28 06:24:02;;;;;;;17.92;7.28;;;;;;;7.02;82.42;99003.13;4939666;28;20604;-85
2021/10/28 06:26:29;;;;;;;20.13;8.38;;;;;;;7.16;82.40;99002.94;4942955;28;20050;-85
2021/10/28 06:28:55;;;;;;;19.70;9.18;;;;;;;7.16;82.54;99002.13;4948583;28;20893;-82
2021/10/28 06:31:21;;;;;;;21.10;7.65;;;;;;;7.17;82.33;99002.00;4944108;28;20154;-84
2021/10/28 06:33:50;;;;;;;15.15;7.03;;;;;;;7.15;82.81;99003.06;4938741;28;20035;-82
2021/10/28 06:36:24;;;;;;;16.92;7.40;;;;;;;7.17;82.33;98994.09;4943025;29;20537;-83
2021/10/28 06:38:50;;;;;;;16.13;7.63;;;;;;;7.14;82.38;98994.34;4951378;28;20420;-86
2021/10/28 06:41:16;;;;;;;20.08;7.75;;;;;;;7.22;82.69;98997.22;4947448;28;20051;-82
2021/10/28 06:43:42;;;;;;;28.52;11.07;;;;;;;7.17;82.86;99002.00;4949743;28;20038;-84
2021/10/28 06:46:08;;;;;;;32.75;13.45;;;;;;;7.25;82.72;99002.28;4952698;28;20049;-81
2021/10/28 06:48:35;;;;;;;19.13;9.07;;;;;;;7.22;82.78;99007.75;4963368;28;20042;-82
2021/10/28 06:51:01;;;;;;;17.77;8.85;;;;;;;7.24;82.90;99010.25;4936814;28;20580;-80
2021/10/28 06:53:35;;;;;;;17.85;8.05;;;;;;;7.29;82.46;99005.53;4950175;28;20138;-82
2021/10/28 06:56:14;;;;;;;15.77;7.68;;;;;;;7.34;82.61;99008.66;4940157;28;20141;-84
2021/10/28 07:04:10;;;;;;;97.68;31.25;;;;;;;7.57;81.86;99001.63;4946843;28;20042;-84
2021/10/28 07:06:39;;;;;;;43.85;17.45;;;;;;;7.63;81.92;99004.75;4931104;29;20039;-88
2021/10/28 07:09:26;;;;;;;39.92;16.23;;;;;;;7.69;81.81;99014.81;4940864;28;20070;-83
2021/10/28 07:12:05;;;;;;;67.65;24.45;;;;;;;7.73;81.74;99013.66;4959441;28;20405;-85
2021/10/28 07:14:32;;;;;;;41.22;16.05;;;;;;;7.87;81.77;99013.41;4959564;28;20061;-82
2021/10/28 07:17:21;;;;;;;56.30;20.70;;;;;;;7.95;81.54;99010.22;4930722;28;20057;-82
2021/10/28 07:25:17;;;;;;;12.85;6.93;;;;;;;8.13;80.91;99015.84;4981416;28;20042;-80
2021/10/28 07:30:38;;;;;;;24.08;10.82;;;;;;;8.24;80.56;99009.75;4944081;28;20507;-84
2021/10/28 07:34:30;;;;;;;31.65;12.35;;;;;;;8.35;80.70;99000.97;4955162;28;20525;-85
2021/10/28 07:56:02;;;;;;;15.05;7.68;;;;;;;8.58;80.33;99012.38;4934776;29;20043;-87
2021/10/28 08:13:29;;;;;;;18.13;9.02;;;;;;;9.03;79.22;99022.84;4890951;29;20116;-84
2021/10/28 08:29:20;;;;;;;13.52;6.50;;;;;;;9.47;78.10;99038.63;4816945;29;20043;-83
2021/10/28 08:32:07;;;;;;;12.25;6.57;;;;;;;9.76;77.57;99040.63;4807018;29;20071;-83
2021/10/28 08:34:36;;;;;;;13.32;6.88;;;;;;;9.77;77.11;99047.59;4794411;29;20497;-87
2021/10/28 08:37:19;;;;;;;22.48;9.73;;;;;;;9.70;77.47;99051.69;4787474;30;20082;-84
2021/10/28 08:39:48;;;;;;;12.20;6.38;;;;;;;9.77;77.52;99046.72;4764175;30;20162;-85
2021/10/28 08:42:27;;;;;;;14.25;6.63;;;;;;;9.71;77.40;99056.03;4777750;30;20043;-86
2021/10/28 08:44:58;;;;;;;11.88;6.20;;;;;;;9.73;77.41;99067.28;4796155;30;20059;-85
2021/10/28 08:47:29;;;;;;;13.10;5.35;;;;;;;9.77;77.27;99067.84;4795722;30;20089;-82
2021/10/28 08:50:10;;;;;;;9.68;5.10;;;;;;;9.77;77.07;99062.56;4779730;30;20049;-85
2021/10/28 08:55:56;;;;;;;9.38;5.38;;;;;;;9.81;76.93;99064.84;4778477;29;20063;-78
2021/10/28 09:26:52;;;;;;;10.27;5.70;;;;;;;10.83;74.89;99066.75;4889696;29;20214;-82
2021/10/28 09:29:48;;;;;;;11.88;5.97;;;;;;;10.90;74.31;99074.97;4926509;29;20465;-83
2021/10/28 09:32:56;;;;;;;8.93;4.55;;;;;;;10.93;73.64;99079.16;4887351;29;20222;-82
2021/10/28 09:51:42;;;;;;;8.45;4.05;;;;;;;11.53;72.18;99091.53;4869407;29;20131;-85
2021/10/28 09:54:35;;;;;;;6.57;3.75;;;;;;;11.44;72.13;99086.06;4879179;29;20045;-83
2021/10/28 09:59:54;;;;;;;14.25;7.68;;;;;;;11.54;72.68;99090.53;4889214;29;20032;-86
2021/10/28 10:05:38;;;;;;;10.27;5.57;;;;;;;11.63;71.70;99089.69;4877384;29;20149;-85
2021/10/28 10:08:07;;;;;;;9.30;5.03;;;;;;;11.52;72.00;99095.13;4906714;29;20116;-87
2021/10/28 10:10:34;;;;;;;16.98;7.88;;;;;;;11.49;72.52;99097.06;4924400;29;20168;-85
2021/10/28 10:13:05;;;;;;;5.32;3.30;;;;;;;11.48;72.24;99100.69;4952491;29;20114;-85
2021/10/28 10:15:33;;;;;;;9.82;4.30;;;;;;;11.51;71.94;99104.06;4934215;29;20075;-86
2021/10/28 10:18:06;;;;;;;9.02;4.70;;;;;;;11.47;72.19;99103.50;4958497;29;20465;-84
2021/10/28 10:20:46;;;;;;;6.97;3.72;;;;;;;11.39;72.75;99103.34;4944074;29;20177;-89
2021/10/28 12:55:07;;;;;;;8.65;3.60;;;;;;;11.35;67.21;99353.47;4927483;28;20042;-87
2021/10/28 13:34:50;;;;;;;4.75;2.05;;;;;;;10.97;68.36;99443.06;4957672;28;20039;-83
2021/10/28 13:49:19;;;;;;;6.82;3.20;;;;;;;10.89;68.03;99488.69;4936553;28;20043;-86
2021/10/28 14:23:51;;;;;;;3.80;1.88;;;;;;;10.40;70.39;99566.66;4902687;29;20052;-85
2021/10/28 14:29:38;;;;;;;3.80;1.70;;;;;;;10.33;71.90;99571.53;4886219;29;20522;-85
2021/10/28 15:29:05;;;;;;;3.97;1.65;;;;;;;9.66;71.90;99731.56;4967060;28;20046;-85
2021/10/28 15:36:56;;;;;;;3.58;1.63;;;;;;;9.51;71.56;99752.81;4884489;29;20052;-82
2021/10/28 15:39:52;;;;;;;5.03;1.50;;;;;;;9.47;71.62;99754.00;4868073;29;20433;-86
2021/10/28 15:55:42;;;;;;;2.88;1.60;;;;;;;9.14;71.45;99781.81;4884765;29;20059;-85
2021/10/28 16:23:08;;;;;;;3.90;2.10;;;;;;;9.35;69.83;99860.47;4883899;29;20056;-85
2021/10/28 16:25:35;;;;;;;4.85;2.45;;;;;;;9.35;69.78;99866.56;4873658;29;20060;-87
2021/10/28 16:28:03;;;;;;;3.97;2.50;;;;;;;9.37;69.80;99879.66;4886768;29;20079;-85
2021/10/28 16:30:29;;;;;;;5.10;2.85;;;;;;;9.36;70.18;99883.25;4878470;29;20055;-82
2021/10/28 16:33:15;;;;;;;6.80;2.40;;;;;;;9.36;69.55;99885.91;4918370;29;20053;-83
2021/10/28 16:35:42;;;;;;;6.30;2.70;;;;;;;9.23;69.78;99889.38;4886929;29;20185;-84
2021/10/28 16:38:09;;;;;;;5.35;2.53;;;;;;;9.31;69.39;99898.53;4872372;29;20056;-84
2021/10/28 16:40:36;;;;;;;6.93;2.30;;;;;;;9.30;69.41;99910.06;4877429;29;20044;-83
2021/10/28 16:43:02;;;;;;;4.77;2.23;;;;;;;9.25;69.12;99909.56;4872778;29;20057;-83
2021/10/28 16:45:29;;;;;;;6.32;2.50;;;;;;;9.23;69.41;99921.06;4869205;29;20039;-84
2021/10/28 16:47:55;;;;;;;5.22;2.40;;;;;;;9.16;69.33;99927.69;4892398;29;20056;-83
2021/10/28 16:50:20;;;;;;;6.45;2.75;;;;;;;9.15;69.54;99939.19;4904690;29;20048;-80
2021/10/28 16:52:46;;;;;;;8.73;3.00;;;;;;;9.12;69.48;99949.09;4925907;29;20079;-87
2021/10/28 16:55:14;;;;;;;6.15;3.00;;;;;;;9.13;69.31;99959.53;4910651;29;20052;-85
2021/10/28 16:57:41;;;;;;;3.15;1.88;;;;;;;9.05;68.82;99961.84;4933488;29;20050;-82
2021/10/28 17:00:08;;;;;;;4.93;1.90;;;;;;;8.98;68.78;99964.03;4924842;29;20509;-84
2021/10/28 17:02:36;;;;;;;4.72;1.83;;;;;;;8.98;68.65;99974.59;4924166;29;20151;-83
2021/10/28 17:05:02;;;;;;;;;;;;;;;8.95;67.64;99968.66;4923170;29;20051;-85
2021/10/28 17:07:28;;;;;;;2.95;1.30;;;;;;;8.94;67.53;99986.31;4918708;29;19918;-83
2021/10/28 17:09:54;;;;;;;2.63;1.30;;;;;;;8.86;67.09;99989.44;4888337;29;20055;-83
2021/10/28 17:12:21;;;;;;;7.25;2.47;;;;;;;8.92;66.37;99984.72;4919550;29;20074;-87
2021/10/28 17:19:10;;;;;;;3.88;1.90;;;;;;;8.62;65.39;99998.94;4964582;28;20064;-86
2021/10/28 17:21:36;;;;;;;4.13;1.30;;;;;;;8.65;65.54;100001.34;4896747;29;20051;-84
2021/10/28 17:24:05;;;;;;;3.53;1.33;;;;;;;8.61;65.07;100010.41;4912901;29;20039;-85
2021/10/28 17:26:33;;;;;;;4.13;1.58;;;;;;;8.56;65.10;100027.38;4912578;29;20051;-85
2021/10/28 17:29:01;;;;;;;7.70;3.00;;;;;;;8.57;65.19;100023.81;4928286;29;20050;-84
2021/10/28 17:31:35;;;;;;;2.90;1.58;;;;;;;8.58;65.27;100020.22;4929507;29;20149;-81
2021/10/28 17:34:06;;;;;;;3.08;1.10;;;;;;;8.59;65.04;100026.34;4931583;29;20057;-84
2021/10/28 17:36:33;;;;;;;3.95;1.58;;;;;;;8.60;65.45;100017.50;4927227;29;20133;-84
2021/10/28 17:38:59;;;;;;;4.47;2.72;;;;;;;8.70;65.27;100007.22;4895129;29;20098;-86
2021/10/28 17:41:26;;;;;;;2.47;1.17;;;;;;;8.58;65.25;100019.38;4926173;29;20149;-83
2021/10/28 17:43:56;;;;;;;4.07;1.60;;;;;;;8.57;65.11;100012.38;4890056;29;20059;-83
2021/10/28 17:46:27;;;;;;;3.70;1.40;;;;;;;8.51;65.45;100011.00;4852048;29;20061;-83
2021/10/28 17:48:54;;;;;;;2.75;1.20;;;;;;;8.44;65.40;100017.56;4852308;29;20045;-86
2021/10/28 17:51:22;;;;;;;3.47;1.43;;;;;;;8.49;65.46;100020.78;4837494;29;20143;-83
2021/10/28 17:53:48;;;;;;;3.23;1.80;;;;;;;8.49;65.41;100015.53;4867167;29;20393;-82
2021/10/28 17:56:18;;;;;;;2.35;1.55;;;;;;;8.34;65.88;100021.72;4851880;29;20086;-84
2021/10/28 17:58:45;;;;;;;15.18;6.43;;;;;;;8.27;66.14;100015.97;4851228;29;20057;-83
2021/10/28 18:01:14;;;;;;;5.13;2.75;;;;;;;8.30;66.47;100036.03;4853520;29;20052;-84
2021/10/28 18:03:40;;;;;;;3.53;1.83;;;;;;;8.24;66.29;100037.25;4868242;29;20507;-83
2021/10/28 18:06:06;;;;;;;3.75;1.90;;;;;;;8.22;66.86;100047.91;4867016;29;20041;-84
2021/10/28 18:08:34;;;;;;;4.88;2.15;;;;;;;8.23;67.00;100049.56;4867750;29;20044;-84
2021/10/28 18:11:00;;;;;;;6.17;2.10;;;;;;;8.22;66.43;100050.53;4868522;29;20052;-87
2021/10/28 18:13:27;;;;;;;5.25;2.10;;;;;;;8.21;66.61;100064.66;4852747;29;20048;-83
2021/10/28 18:15:57;;;;;;;5.22;2.10;;;;;;;8.33;66.69;100070.09;4902361;29;20144;-88
2021/10/28 18:18:28;;;;;;;4.28;1.70;;;;;;;8.30;66.65;100067.63;4891464;29;20160;-86
2021/10/28 18:21:03;;;;;;;;;;;;;;;8.32;66.62;100081.59;4870356;29;20084;-86
2021/10/28 18:23:34;;;;;;;5.32;2.45;;;;;;;8.26;66.36;100091.56;4852918;29;19920;-84
2021/10/28 18:26:00;;;;;;;8.50;2.90;;;;;;;8.25;66.74;100107.47;4834760;29;20061;-84
2021/10/28 18:28:27;;;;;;;7.25;2.70;;;;;;;8.30;66.19;100120.34;4832818;29;20164;-83
2021/10/28 18:30:54;;;;;;;6.13;3.13;;;;;;;8.28;66.32;100116.97;4861612;29;20144;-84
2021/10/28 18:33:20;;;;;;;6.20;2.58;;;;;;;8.25;65.87;100118.84;4885464;29;20060;-84
2021/10/28 18:35:48;;;;;;;6.72;2.80;;;;;;;8.33;65.80;100122.81;4854911;29;20161;-79
2021/10/28 18:38:14;;;;;;;6.95;2.95;;;;;;;8.25;65.55;100134.66;4898915;29;20048;-83
2021/10/28 18:40:40;;;;;;;9.63;3.83;;;;;;;8.22;65.71;100142.75;4883837;29;20054;-84
2021/10/28 18:43:07;;;;;;;11.70;3.25;;;;;;;8.10;65.17;100151.41;4870692;29;20179;-82
2021/10/28 18:45:32;;;;;;;6.40;3.00;;;;;;;8.10;65.09;100161.94;4885809;29;20060;-83
2021/10/28 18:47:59;;;;;;;7.57;4.03;;;;;;;8.14;64.98;100166.06;4885988;29;20460;-84
2021/10/28 18:50:25;;;;;;;6.30;3.00;;;;;;;8.15;64.38;100173.03;4868058;29;20565;-85
2021/10/28 18:52:51;;;;;;;8.50;3.45;;;;;;;8.17;64.62;100176.41;4868993;29;20134;-84
2021/10/28 18:55:17;;;;;;;5.53;3.33;;;;;;;8.08;63.78;100184.88;4885603;29;20140;-85
2021/10/28 18:57:44;;;;;;;12.07;4.22;;;;;;;8.05;63.72;100177.13;4889461;29;20040;-85
2021/10/28 19:00:12;;;;;;;8.40;4.57;;;;;;;8.05;63.50;100187.66;4906803;29;20477;-86
2021/10/28 19:02:58;;;;;;;6.55;3.47;;;;;;;8.03;63.59;100198.31;4908552;29;20052;-86
2021/10/28 19:05:25;;;;;;;9.98;4.13;;;;;;;8.11;63.00;100211.03;4871893;29;20039;-86
2021/10/28 19:07:51;;;;;;;8.57;3.80;;;;;;;8.04;62.97;100199.16;4901857;29;20047;-81
2021/10/28 19:10:20;;;;;;;7.47;3.97;;;;;;;8.03;62.99;100203.56;4876173;29;20138;-86
2021/10/28 19:12:50;;;;;;;8.23;4.20;;;;;;;8.12;63.07;100211.88;4913723;29;20065;-85
2021/10/28 19:15:46;;;;;;;6.67;3.87;;;;;;;8.06;62.81;100207.81;4945364;29;20076;-84
2021/10/28 19:18:16;;;;;;;7.82;3.90;;;;;;;8.08;62.84;100211.22;4919597;28;20093;-85
2021/10/28 19:21:16;;;;;;;6.13;3.83;;;;;;;8.10;62.43;100219.88;4937824;28;20069;-84
2021/10/28 19:23:54;;;;;;;10.13;4.38;;;;;;;8.06;62.71;100220.97;4917387;29;20055;-85
2021/10/28 19:26:21;;;;;;;7.55;4.55;;;;;;;8.11;62.45;100221.56;4928530;29;20110;-85
2021/10/28 19:28:48;;;;;;;7.93;4.03;;;;;;;8.15;62.54;100225.75;4887246;29;20401;-86
2021/10/28 19:34:10;;;;;;;9.35;4.93;;;;;;;8.08;63.35;100227.03;4894878;29;20048;-82
2021/10/28 19:46:48;;;;;;;5.10;2.80;;;;;;;8.03;62.13;100240.44;4848814;29;20400;-83
2021/10/28 19:48:20;;;;;;;6.45;2.72;;;;;;;8.04;62.12;100236.06;4792931;29;20167;-84
2021/10/28 19:50:49;;;;;;;8.30;3.37;;;;;;;8.00;61.99;100239.78;4814763;29;20050;-83
2021/10/28 19:53:17;;;;;;;5.82;2.85;;;;;;;7.97;61.97;100245.22;4796959;29;20394;-84
2021/10/28 19:55:46;;;;;;;5.82;2.92;;;;;;;7.94;61.76;100252.38;4831617;29;20176;-82
2021/10/28 19:58:18;;;;;;;6.80;2.33;;;;;;;7.98;61.57;100254.84;4868707;29;20080;-85
2021/10/28 20:00:58;;;;;;;4.22;2.10;;;;;;;8.04;61.37;100262.41;4821403;29;20058;-84
2021/10/28 20:04:07;;;;;;;16.60;3.95;;;;;;;8.02;61.60;100258.97;4851869;29;20071;-85
2021/10/28 20:20:15;;;;;;;8.32;3.10;;;;;;;8.08;61.84;100264.75;4926982;29;20071;-85
2021/10/28 20:22:47;;;;;;;7.15;2.50;;;;;;;8.03;61.79;100256.25;4959017;28;20071;-83
2021/10/28 20:25:25;;;;;;;8.45;2.50;;;;;;;7.99;62.48;100253.88;4914966;29;20043;-88
2021/10/28 20:28:04;;;;;;;7.20;2.58;;;;;;;7.93;61.78;100260.34;4963125;28;20058;-85
2021/10/28 20:30:54;;;;;;;10.98;2.58;;;;;;;7.91;62.16;100273.63;4947829;28;20956;-85
2021/10/28 20:33:26;;;;;;;10.02;2.83;;;;;;;7.90;62.78;100271.91;4953438;28;20043;-86
2021/10/28 20:39:44;;;;;;;6.15;2.40;;;;;;;8.10;61.82;100283.13;4980231;28;20078;-87
2021/10/28 20:42:49;;;;;;;5.28;2.72;;;;;;;8.08;61.52;100282.34;4980253;28;20043;-85
2021/10/28 20:45:24;;;;;;;15.20;5.95;;;;;;;8.13;61.65;100277.66;4949462;29;20543;-85
2021/10/28 20:47:52;;;;;;;13.10;3.65;;;;;;;8.17;61.81;100300.25;4934122;29;20043;-81
2021/10/28 20:50:26;;;;;;;6.43;2.90;;;;;;;8.19;61.97;100302.81;4947878;29;20070;-84
2021/10/28 20:52:58;;;;;;;7.45;3.35;;;;;;;8.10;61.81;100304.19;4888723;29;20047;-85
2021/10/28 20:55:25;;;;;;;;;;;;;;;8.12;62.04;100314.63;4899276;29;20059;-83
2021/10/28 20:57:54;;;;;;;6.80;3.50;;;;;;;8.07;61.89;100315.75;4894782;29;20300;-87
2021/10/28 21:00:25;;;;;;;12.57;3.80;;;;;;;8.05;62.05;100300.94;4873869;29;20048;-81
2021/10/28 21:03:04;;;;;;;6.40;3.50;;;;;;;8.05;61.79;100301.81;4844358;29;20207;-84